Time;durP1;ratioP1;P1;durP2;ratioP2;P2;SDS_P1;SDS_P2;PMS_P1;PMS_P2;Temp;Humidity;BMP_temperature;BMP_pressure;BME280_temperature;BME280_humidity;BME280_pressure;Samples;Min_cycle;Max_cycle;Signal;HPM_P1;HPM_P2
2021/12/17 00:00:17;;;;;;;58.80;34.00;;;6.10;99.90;;;;;;5072534;28;20400;-89
2021/12/17 00:06:40;;;;;;;53.97;32.85;;;6.10;99.90;;;;;;5058702;28;20393;-88
2021/12/17 00:08:28;;;;;;;60.65;33.47;;;6.10;99.90;;;;;;5063999;28;20473;-88
2021/12/17 00:10:54;;;;;;;59.00;34.00;;;6.10;99.90;;;;;;5052434;28;20534;-89
2021/12/17 00:13:20;;;;;;;54.40;31.93;;;6.20;99.90;;;;;;5087987;28;20395;-89
2021/12/17 00:15:46;;;;;;;53.07;32.40;;;6.20;99.90;;;;;;5062318;28;20879;-84
2021/12/17 00:18:23;;;;;;;57.38;31.02;;;6.20;99.90;;;;;;5052722;28;20416;-89
2021/12/17 00:51:09;;;;;;;59.23;31.20;;;6.20;99.90;;;;;;5090295;28;20388;-91
2021/12/17 00:53:28;;;;;;;50.38;29.10;;;6.10;99.90;;;;;;5070962;28;20766;-89
2021/12/17 00:55:53;;;;;;;54.00;29.20;;;6.20;99.90;;;;;;5059877;28;20384;-89
2021/12/17 00:58:19;;;;;;;44.42;27.10;;;6.10;99.90;;;;;;5067932;28;20384;-87
2021/12/17 01:00:46;;;;;;;49.53;27.77;;;6.10;99.90;;;;;;5074066;28;20404;-91
2021/12/17 01:03:12;;;;;;;50.00;28.25;;;6.10;99.90;;;;;;5073597;28;20394;-88
2021/12/17 01:05:38;;;;;;;41.90;26.43;;;6.10;99.90;;;;;;5056946;28;20749;-89
2021/12/17 01:08:05;;;;;;;51.45;27.10;;;6.10;99.90;;;;;;5059349;28;20431;-89
2021/12/17 01:10:44;;;;;;;48.73;25.97;;;6.10;99.90;;;;;;5066139;28;20497;-84
2021/12/17 01:13:11;;;;;;;41.45;24.48;;;6.20;99.90;;;;;;5069398;28;20421;-87
2021/12/17 01:15:39;;;;;;;41.80;25.02;;;6.20;99.90;;;;;;5061434;28;20416;-88
2021/12/17 01:18:10;;;;;;;45.63;24.13;;;6.20;99.90;;;;;;5067514;28;20430;-87
2021/12/17 01:21:19;;;;;;;40.97;22.95;;;6.10;99.90;;;;;;5054348;28;20930;-88
2021/12/17 01:42:40;;;;;;;43.40;24.55;;;6.10;99.90;;;;;;5092615;28;20469;-88
2021/12/17 01:45:07;;;;;;;40.47;24.15;;;6.00;99.90;;;;;;5057496;28;20414;-89
2021/12/17 01:47:33;;;;;;;44.15;23.60;;;6.10;99.90;;;;;;5055616;28;20771;-88
2021/12/17 02:00:56;;;;;;;41.40;23.85;;;6.10;99.90;;;;;;5082648;28;20411;-89
2021/12/17 02:03:22;;;;;;;42.75;24.27;;;6.00;99.90;;;;;;5075315;28;20372;-88
2021/12/17 02:05:48;;;;;;;41.33;23.90;;;6.10;99.90;;;;;;5092218;28;20379;-89
2021/12/17 02:08:15;;;;;;;44.28;25.70;;;6.10;99.90;;;;;;5073085;28;21192;-88
2021/12/17 02:21:56;;;;;;;40.90;24.13;;;6.10;99.90;;;;;;5081784;28;20893;-89
2021/12/17 02:32:19;;;;;;;41.92;24.50;;;6.10;99.90;;;;;;5084609;28;20425;-87
2021/12/17 02:37:15;;;;;;;40.33;23.70;;;6.00;99.90;;;;;;5071672;28;20406;-89
2021/12/17 02:42:33;;;;;;;40.58;23.23;;;6.00;99.90;;;;;;5091424;28;20396;-89
2021/12/17 02:47:43;;;;;;;40.95;23.73;;;6.00;99.90;;;;;;5079202;28;20403;-90
2021/12/17 02:50:11;;;;;;;41.47;23.60;;;6.00;99.90;;;;;;5072799;28;20432;-87
2021/12/17 02:52:39;;;;;;;46.72;23.95;;;5.90;99.90;;;;;;5091074;28;20434;-90
2021/12/17 02:55:07;;;;;;;39.97;23.77;;;6.00;99.90;;;;;;5055728;28;20485;-86
2021/12/17 02:57:34;;;;;;;45.67;24.33;;;6.00;99.90;;;;;;5053598;28;20424;-89
2021/12/17 03:00:03;;;;;;;42.05;23.70;;;5.90;99.90;;;;;;5054924;28;20496;-88
2021/12/17 03:02:31;;;;;;;42.13;23.30;;;5.90;99.90;;;;;;5060850;28;20386;-89
2021/12/17 03:04:57;;;;;;;40.22;23.77;;;5.90;99.90;;;;;;5073399;28;20389;-89
2021/12/17 03:07:23;;;;;;;42.85;25.30;;;6.00;99.90;;;;;;5073061;28;20891;-88
2021/12/17 03:10:05;;;;;;;45.07;24.77;;;6.00;99.90;;;;;;5057156;28;20391;-87
2021/12/17 03:12:43;;;;;;;38.53;22.88;;;6.00;99.90;;;;;;5071785;28;20517;-89
2021/12/17 03:23:39;;;;;;;41.08;23.70;;;6.10;99.90;;;;;;5070310;28;21147;-89
2021/12/17 03:26:26;;;;;;;41.05;24.20;;;6.00;99.90;;;;;;5073398;28;20475;-88
2021/12/17 03:28:58;;;;;;;45.30;24.97;;;5.90;99.90;;;;;;5071165;28;20435;-90
2021/12/17 03:31:24;;;;;;;40.80;24.65;;;6.00;99.90;;;;;;5070691;28;20384;-87
2021/12/17 03:33:54;;;;;;;37.27;23.43;;;6.00;99.90;;;;;;5072771;28;20773;-85
2021/12/17 03:36:20;;;;;;;40.70;24.50;;;6.00;99.90;;;;;;5091378;28;20516;-89
2021/12/17 03:38:49;;;;;;;42.72;24.52;;;6.00;99.90;;;;;;5072546;28;20392;-90
2021/12/17 03:41:22;;;;;;;44.30;24.53;;;6.00;99.90;;;;;;5071219;28;20409;-90
2021/12/17 03:43:50;;;;;;;42.00;24.02;;;6.00;99.90;;;;;;5065762;28;20479;-89
2021/12/17 03:46:19;;;;;;;39.63;24.38;;;5.90;99.90;;;;;;5053585;28;20414;-87
2021/12/17 03:48:45;;;;;;;40.30;23.73;;;6.00;99.90;;;;;;5066454;28;20432;-89
2021/12/17 03:51:14;;;;;;;42.05;22.35;;;6.00;99.90;;;;;;5054009;28;20390;-90
2021/12/17 03:53:46;;;;;;;36.50;22.80;;;6.00;99.90;;;;;;5053019;28;20991;-90
2021/12/17 03:56:11;;;;;;;41.15;24.17;;;6.00;99.90;;;;;;5052610;28;20876;-85
2021/12/17 03:58:37;;;;;;;43.42;23.33;;;6.00;99.90;;;;;;5069831;28;20382;-89
2021/12/17 04:01:04;;;;;;;44.70;23.80;;;6.00;99.90;;;;;;5052972;28;20394;-90
2021/12/17 04:03:30;;;;;;;37.33;23.40;;;5.90;99.90;;;;;;5055092;28;20388;-85
2021/12/17 04:05:57;;;;;;;37.70;22.03;;;6.00;99.90;;;;;;5089717;28;20468;-87
2021/12/17 04:08:23;;;;;;;42.28;22.85;;;6.00;99.90;;;;;;5066793;28;20405;-89
2021/12/17 04:10:51;;;;;;;39.77;21.43;;;6.00;99.90;;;;;;5070609;28;20395;-88
2021/12/17 04:15:56;;;;;;;40.80;22.00;;;5.90;99.90;;;;;;5088508;28;20475;-88
2021/12/17 04:18:22;;;;;;;34.85;20.52;;;5.90;99.90;;;;;;5070112;28;20903;-88
2021/12/17 04:20:47;;;;;;;35.38;21.63;;;6.00;99.90;;;;;;5054766;28;20463;-89
2021/12/17 04:23:13;;;;;;;33.37;20.00;;;6.10;99.90;;;;;;5051588;28;20390;-91
2021/12/17 04:25:39;;;;;;;39.77;21.50;;;6.10;99.90;;;;;;5071653;28;20513;-87
2021/12/17 04:28:05;;;;;;;39.20;21.53;;;6.10;99.90;;;;;;5062077;28;20481;-89
2021/12/17 04:30:31;;;;;;;36.70;21.77;;;6.00;99.90;;;;;;5052599;28;20940;-89
2021/12/17 04:32:57;;;;;;;34.05;21.63;;;6.10;99.90;;;;;;5051512;28;20425;-86
2021/12/17 04:35:23;;;;;;;40.10;22.10;;;5.90;99.90;;;;;;5054862;28;20491;-91
2021/12/17 04:37:49;;;;;;;40.65;21.98;;;5.90;99.90;;;;;;5065860;28;20408;-88
2021/12/17 04:40:15;;;;;;;34.77;20.40;;;5.90;99.90;;;;;;5055960;28;20743;-89
2021/12/17 04:43:15;;;;;;;37.00;20.73;;;5.90;99.90;;;;;;5073769;28;20473;-86
2021/12/17 04:45:27;;;;;;;36.85;21.45;;;6.00;99.90;;;;;;5089724;28;20392;-86
2021/12/17 04:58:50;;;;;;;33.42;20.17;;;5.90;99.90;;;;;;5075005;28;20420;-90
2021/12/17 05:01:16;;;;;;;38.17;20.88;;;5.90;99.90;;;;;;5056623;28;20417;-88
2021/12/17 05:03:42;;;;;;;42.40;20.25;;;5.90;99.90;;;;;;5067362;28;20956;-90
2021/12/17 05:06:08;;;;;;;38.00;20.17;;;5.80;99.90;;;;;;5059332;28;20839;-89
2021/12/17 05:08:34;;;;;;;35.60;20.23;;;5.90;99.90;;;;;;5054925;28;20424;-89
2021/12/17 05:11:19;;;;;;;35.47;19.85;;;6.00;99.90;;;;;;5055198;28;20397;-90
2021/12/17 05:19:40;;;;;;;35.40;19.65;;;5.90;99.90;;;;;;5084931;28;20987;-88
2021/12/17 05:22:11;;;;;;;36.08;18.52;;;5.90;99.90;;;;;;5075018;28;20483;-85
2021/12/17 05:24:45;;;;;;;37.05;19.05;;;5.90;99.90;;;;;;5062938;28;20398;-90
2021/12/17 05:27:12;;;;;;;33.27;18.87;;;5.80;99.90;;;;;;5055315;28;20490;-91
2021/12/17 05:29:37;;;;;;;35.95;18.65;;;5.80;99.90;;;;;;5066393;28;20837;-88
2021/12/17 05:32:04;;;;;;;34.50;18.07;;;5.80;99.90;;;;;;5073965;28;20388;-86
2021/12/17 05:34:30;;;;;;;36.38;17.85;;;5.90;99.90;;;;;;5092824;28;20430;-87
2021/12/17 05:36:55;;;;;;;39.60;18.80;;;5.90;99.90;;;;;;5075338;28;20408;-88
2021/12/17 05:39:21;;;;;;;34.67;18.23;;;5.90;99.90;;;;;;5064315;28;20393;-86
2021/12/17 05:41:47;;;;;;;36.63;18.43;;;5.90;99.90;;;;;;5055511;28;20827;-88
2021/12/17 05:44:14;;;;;;;35.67;18.08;;;5.80;99.90;;;;;;5060864;28;20380;-90
2021/12/17 05:46:50;;;;;;;35.88;17.77;;;5.90;99.90;;;;;;5083027;28;20531;-90
2021/12/17 05:49:20;;;;;;;36.03;17.97;;;5.90;99.90;;;;;;5071914;28;20476;-85
2021/12/17 05:51:47;;;;;;;32.55;17.75;;;5.90;99.90;;;;;;5075176;28;20866;-89
2021/12/17 05:54:13;;;;;;;32.55;17.58;;;5.90;99.90;;;;;;5075475;28;20365;-88
2021/12/17 05:56:40;;;;;;;33.15;17.65;;;5.80;99.90;;;;;;5074863;28;20399;-90
2021/12/17 05:59:06;;;;;;;30.15;16.73;;;6.00;99.90;;;;;;5062519;28;20393;-90
2021/12/17 06:01:33;;;;;;;30.98;17.13;;;6.00;99.90;;;;;;5071227;28;20411;-85
2021/12/17 06:04:03;;;;;;;37.13;18.02;;;6.00;99.90;;;;;;5087849;28;20885;-90
2021/12/17 06:06:34;;;;;;;32.97;17.17;;;5.90;99.90;;;;;;5072821;28;20392;-90
2021/12/17 06:09:05;;;;;;;38.78;17.75;;;6.00;99.90;;;;;;5070879;28;20384;-90
2021/12/17 06:11:32;;;;;;;34.08;17.65;;;6.00;99.90;;;;;;5070120;28;20466;-90
2021/12/17 06:14:03;;;;;;;31.83;16.30;;;6.10;99.90;;;;;;5062855;28;20900;-89
2021/12/17 06:16:40;;;;;;;32.40;16.77;;;6.10;99.90;;;;;;5087099;28;20503;-88
2021/12/17 06:19:06;;;;;;;35.85;17.05;;;5.90;99.90;;;;;;5087877;28;20388;-86
2021/12/17 06:21:31;;;;;;;34.50;16.80;;;5.90;99.90;;;;;;5067579;28;20376;-89
2021/12/17 06:23:58;;;;;;;38.22;17.50;;;6.00;99.90;;;;;;5071424;28;20842;-90
2021/12/17 06:26:24;;;;;;;32.40;16.50;;;6.10;99.90;;;;;;5067573;28;20384;-86
2021/12/17 06:28:50;;;;;;;34.80;16.67;;;6.10;99.90;;;;;;5064360;28;20385;-90
2021/12/17 06:31:21;;;;;;;34.17;16.05;;;6.10;99.90;;;;;;5060559;28;20426;-90
2021/12/17 06:33:47;;;;;;;33.10;16.05;;;6.00;99.90;;;;;;5084433;28;20384;-91
2021/12/17 06:36:13;;;;;;;30.63;16.58;;;6.10;99.90;;;;;;5074691;28;20724;-91
2021/12/17 06:38:39;;;;;;;32.63;16.02;;;6.20;99.90;;;;;;5093363;28;20382;-86
2021/12/17 06:41:04;;;;;;;33.58;16.15;;;6.30;99.90;;;;;;5093794;28;20414;-91
2021/12/17 06:43:38;;;;;;;36.63;16.33;;;6.20;99.90;;;;;;5095054;28;20388;-90
2021/12/17 06:46:19;;;;;;;30.35;15.15;;;6.10;99.90;;;;;;5094373;28;20466;-90
2021/12/17 06:48:47;;;;;;;33.83;16.13;;;6.10;99.90;;;;;;5092331;28;20391;-91
2021/12/17 07:08:11;;;;;;;35.20;17.00;;;6.00;99.90;;;;;;5091478;28;20453;-90
2021/12/17 07:10:16;;;;;;;32.13;16.40;;;6.10;99.90;;;;;;5091484;28;20493;-89
2021/12/17 07:34:43;;;;;;;34.22;15.80;;;6.10;99.90;;;;;;5091653;28;20421;-90
2021/12/17 07:39:35;;;;;;;34.40;14.97;;;6.10;99.90;;;;;;5090710;28;20919;-90
2021/12/17 07:42:00;;;;;;;31.60;15.63;;;6.20;99.90;;;;;;5071203;28;20471;-90
2021/12/17 07:44:26;;;;;;;26.63;14.17;;;6.20;99.90;;;;;;5078136;28;20445;-86
2021/12/17 07:46:52;;;;;;;34.25;14.95;;;6.20;99.90;;;;;;5074396;28;20396;-90
2021/12/17 07:49:17;;;;;;;35.83;15.50;;;6.30;99.90;;;;;;5073053;28;20467;-90
2021/12/17 07:51:43;;;;;;;29.00;14.27;;;6.20;99.90;;;;;;5071910;28;20400;-90
2021/12/17 07:54:09;;;;;;;30.97;14.67;;;6.30;99.90;;;;;;5071751;28;20380;-90
2021/12/17 07:56:37;;;;;;;33.10;14.20;;;6.40;99.90;;;;;;5072425;28;20531;-89
2021/12/17 07:59:06;;;;;;;29.75;14.18;;;6.40;99.90;;;;;;5061375;28;20389;-90
2021/12/17 08:01:32;;;;;;;28.33;13.32;;;6.40;99.90;;;;;;5071285;28;20392;-90
2021/12/17 08:03:58;;;;;;;29.17;13.52;;;6.40;99.90;;;;;;5070942;28;20463;-87
2021/12/17 08:06:24;;;;;;;27.27;12.80;;;6.40;99.90;;;;;;5071513;28;20472;-89
2021/12/17 08:08:49;;;;;;;28.57;12.90;;;6.40;99.90;;;;;;5070685;28;20849;-91
2021/12/17 08:11:15;;;;;;;30.00;12.87;;;6.50;99.90;;;;;;5071595;28;20495;-89
2021/12/17 08:13:43;;;;;;;30.23;13.32;;;6.40;99.90;;;;;;5072938;28;20403;-89
2021/12/17 08:16:48;;;;;;;28.33;13.80;;;6.30;99.90;;;;;;5073789;28;20474;-89
2021/12/17 08:32:00;;;;;;;26.07;12.53;;;6.60;99.90;;;;;;5082655;28;20384;-88
2021/12/17 08:34:27;;;;;;;26.73;12.52;;;6.50;99.90;;;;;;5066410;28;20939;-91
2021/12/17 08:36:53;;;;;;;26.17;11.93;;;6.50;99.90;;;;;;5062655;28;20476;-89
2021/12/17 08:39:19;;;;;;;25.45;11.38;;;6.60;99.90;;;;;;5066797;28;20426;-86
2021/12/17 08:41:53;;;;;;;23.75;11.00;;;6.60;99.90;;;;;;5066360;28;20383;-91
2021/12/17 08:44:19;;;;;;;27.45;11.75;;;6.50;99.90;;;;;;5066799;28;20392;-90
2021/12/17 08:46:50;;;;;;;24.98;10.63;;;6.50;99.90;;;;;;5069281;28;20388;-90
2021/12/17 08:49:17;;;;;;;22.20;11.15;;;6.50;99.90;;;;;;5065864;28;20442;-87
2021/12/17 08:51:45;;;;;;;24.33;11.60;;;6.50;99.90;;;;;;5086227;28;20398;-90
2021/12/17 08:54:10;;;;;;;24.70;10.73;;;6.60;99.90;;;;;;5068537;28;20461;-90
2021/12/17 08:56:45;;;;;;;25.05;10.93;;;6.70;99.90;;;;;;5068405;28;20376;-90
2021/12/17 08:59:13;;;;;;;25.27;11.27;;;6.70;99.90;;;;;;5069042;28;20378;-91
2021/12/17 09:01:39;;;;;;;27.83;10.90;;;6.70;99.90;;;;;;5067446;28;20383;-91
2021/12/17 09:04:04;;;;;;;23.40;10.63;;;6.60;99.90;;;;;;5068433;28;20880;-90
2021/12/17 09:06:30;;;;;;;25.47;10.33;;;6.70;99.90;;;;;;5068146;28;20826;-90
2021/12/17 09:08:57;;;;;;;22.63;10.17;;;6.70;99.90;;;;;;5061306;28;20396;-90
2021/12/17 09:11:26;;;;;;;25.13;11.23;;;6.70;99.90;;;;;;5067121;28;20388;-86
2021/12/17 09:13:58;;;;;;;22.98;10.52;;;6.70;99.90;;;;;;5085750;28;20380;-89
2021/12/17 09:16:24;;;;;;;25.63;9.95;;;6.80;99.90;;;;;;5066671;28;20387;-90
2021/12/17 09:18:51;;;;;;;22.75;9.52;;;6.80;99.90;;;;;;5064900;28;20395;-90
2021/12/17 09:21:18;;;;;;;21.40;9.10;;;6.90;99.90;;;;;;5066843;28;20419;-90
2021/12/17 09:23:44;;;;;;;27.42;10.13;;;6.90;99.90;;;;;;5069593;28;20383;-86
2021/12/17 09:26:11;;;;;;;23.10;9.65;;;6.90;99.90;;;;;;5071211;28;20364;-91
2021/12/17 09:28:37;;;;;;;24.02;9.32;;;6.80;99.90;;;;;;5072054;28;20405;-89
2021/12/17 09:31:05;;;;;;;22.08;9.50;;;6.80;99.90;;;;;;5073503;28;21168;-89
2021/12/17 09:33:31;;;;;;;22.83;9.32;;;6.90;99.90;;;;;;5075875;28;20765;-83
2021/12/17 09:35:57;;;;;;;21.27;9.05;;;6.90;99.90;;;;;;5091237;28;20467;-87
2021/12/17 09:38:23;;;;;;;22.83;9.03;;;6.90;99.90;;;;;;5075057;28;20905;-89
2021/12/17 09:40:49;;;;;;;26.77;9.60;;;6.90;99.90;;;;;;5091461;28;20532;-84
2021/12/17 09:43:15;;;;;;;18.95;8.60;;;6.90;99.90;;;;;;5074459;28;20947;-87
2021/12/17 09:45:41;;;;;;;20.90;8.63;;;6.80;99.90;;;;;;5075421;28;20374;-88
2021/12/17 09:48:07;;;;;;;20.90;8.48;;;6.80;99.90;;;;;;5074108;28;20397;-84
2021/12/17 09:50:33;;;;;;;23.80;9.10;;;6.90;99.90;;;;;;5074571;28;20731;-89
2021/12/17 09:52:59;;;;;;;23.33;8.65;;;6.90;99.90;;;;;;5073699;28;20396;-87
2021/12/17 09:55:25;;;;;;;19.80;8.50;;;6.90;99.90;;;;;;5093294;28;20379;-90
2021/12/17 09:57:50;;;;;;;23.17;8.38;;;7.00;99.90;;;;;;5074283;28;20381;-90
2021/12/17 10:00:20;;;;;;;27.52;9.43;;;7.10;99.90;;;;;;5073754;28;20389;-90
2021/12/17 10:02:48;;;;;;;23.08;8.23;;;7.10;99.90;;;;;;5057129;28;20381;-89
2021/12/17 10:05:23;;;;;;;23.92;8.57;;;7.10;99.90;;;;;;5073882;28;20476;-89
2021/12/17 10:07:55;;;;;;;22.83;8.23;;;7.20;99.90;;;;;;5091233;28;20416;-88
2021/12/17 10:10:21;;;;;;;22.30;8.77;;;7.20;99.90;;;;;;5073318;28;20414;-90
2021/12/17 10:12:47;;;;;;;20.85;8.25;;;7.40;99.90;;;;;;5076842;28;20406;-87
2021/12/17 10:15:20;;;;;;;21.98;7.80;;;7.30;99.90;;;;;;5075463;28;20379;-84
2021/12/17 10:18:00;;;;;;;18.88;8.45;;;7.20;99.90;;;;;;5073616;28;20402;-88
2021/12/17 10:20:27;;;;;;;22.55;8.68;;;7.20;99.90;;;;;;5073960;28;20384;-89
2021/12/17 10:23:07;;;;;;;19.33;8.97;;;7.10;99.90;;;;;;5073006;28;20405;-88
2021/12/17 10:25:36;;;;;;;17.10;8.33;;;7.20;99.90;;;;;;5072671;28;20388;-89
2021/12/17 10:28:05;;;;;;;18.92;8.50;;;7.30;99.90;;;;;;5073914;28;20487;-89
2021/12/17 10:30:37;;;;;;;17.52;8.18;;;7.30;99.90;;;;;;5072970;28;20376;-84
2021/12/17 10:33:07;;;;;;;22.60;8.63;;;7.20;99.90;;;;;;5091788;28;20408;-90
2021/12/17 10:35:38;;;;;;;22.27;8.38;;;7.00;99.90;;;;;;5072741;28;20475;-90
2021/12/17 10:38:11;;;;;;;21.77;8.98;;;7.10;99.90;;;;;;5073024;28;20399;-90
2021/12/17 10:40:48;;;;;;;24.83;8.97;;;7.30;99.90;;;;;;5072153;28;20418;-88
2021/12/17 10:43:26;;;;;;;19.67;8.10;;;7.40;99.90;;;;;;5073069;28;20716;-90
2021/12/17 10:54:02;;;;;;;25.60;9.40;;;7.30;99.90;;;;;;5090337;28;20392;-88
2021/12/17 10:56:32;;;;;;;19.33;8.30;;;7.30;99.90;;;;;;5055756;28;20386;-87
2021/12/17 10:59:09;;;;;;;24.17;8.15;;;7.30;99.90;;;;;;5067133;28;20427;-89
2021/12/17 11:01:54;;;;;;;18.20;8.23;;;7.10;99.90;;;;;;5061351;28;20392;-91
2021/12/17 11:04:25;;;;;;;22.30;7.97;;;7.40;99.90;;;;;;5069051;28;20400;-89
2021/12/17 11:07:01;;;;;;;18.70;7.03;;;7.40;99.90;;;;;;5071135;28;20410;-92
2021/12/17 11:09:57;;;;;;;19.85;7.78;;;7.50;99.90;;;;;;5068044;28;20476;-90
2021/12/17 11:12:23;;;;;;;20.95;8.60;;;7.60;99.90;;;;;;5069693;28;20388;-92
2021/12/17 11:14:52;;;;;;;20.05;8.70;;;7.70;99.90;;;;;;5068784;28;20384;-90
2021/12/17 11:17:21;;;;;;;22.25;9.00;;;7.70;99.90;;;;;;5069219;28;20476;-87
2021/12/17 11:19:54;;;;;;;21.80;9.23;;;7.60;99.90;;;;;;5086472;28;20425;-87
2021/12/17 11:22:30;;;;;;;22.67;9.23;;;7.50;99.90;;;;;;5087076;28;20731;-89
2021/12/17 11:24:58;;;;;;;19.52;9.40;;;7.60;99.90;;;;;;5067380;28;20410;-86
2021/12/17 11:27:26;;;;;;;22.77;8.85;;;7.70;99.90;;;;;;5086437;28;20427;-89
2021/12/17 11:29:54;;;;;;;21.83;9.45;;;7.50;99.90;;;;;;5067415;28;20803;-86
2021/12/17 11:32:22;;;;;;;19.05;8.80;;;7.40;99.90;;;;;;5067940;28;21305;-91
2021/12/17 11:34:54;;;;;;;21.67;9.13;;;7.30;99.90;;;;;;5068088;28;20389;-94
2021/12/17 11:37:34;;;;;;;18.50;8.93;;;7.40;99.90;;;;;;5068018;28;20392;-90
2021/12/17 11:40:09;;;;;;;22.38;9.40;;;7.40;99.90;;;;;;5068591;28;20882;-91
2021/12/17 11:43:16;;;;;;;20.52;9.10;;;7.60;99.90;;;;;;5067240;28;20381;-90
2021/12/17 11:45:44;;;;;;;23.63;9.88;;;7.60;99.90;;;;;;5067508;28;20392;-90
2021/12/17 11:48:19;;;;;;;21.85;8.65;;;7.50;99.90;;;;;;5067477;28;20408;-89
2021/12/17 11:50:47;;;;;;;22.40;8.65;;;7.70;99.90;;;;;;5086736;28;20902;-88
2021/12/17 11:53:22;;;;;;;20.52;8.57;;;7.60;99.90;;;;;;5067205;28;20388;-90
2021/12/17 11:55:57;;;;;;;19.23;8.38;;;7.60;99.90;;;;;;5067231;28;20743;-90
2021/12/17 11:58:50;;;;;;;21.08;8.27;;;7.80;99.90;;;;;;5068001;28;20377;-90
2021/12/17 12:01:47;;;;;;;21.63;8.15;;;7.80;99.90;;;;;;5070351;28;20422;-91
2021/12/17 12:04:49;;;;;;;20.80;8.10;;;7.80;99.90;;;;;;5084941;28;20452;-90
2021/12/17 12:07:29;;;;;;;17.75;7.30;;;7.80;99.90;;;;;;5085245;28;20404;-90
2021/12/17 12:10:07;;;;;;;15.80;6.83;;;7.70;99.90;;;;;;5070475;28;20519;-91
2021/12/17 12:12:33;;;;;;;18.45;7.32;;;7.60;99.90;;;;;;5066235;28;20414;-91
2021/12/17 12:15:23;;;;;;;18.73;7.18;;;7.60;99.90;;;;;;5067792;28;20396;-90
2021/12/17 12:18:02;;;;;;;18.83;7.18;;;7.60;99.90;;;;;;5086690;28;20364;-88
2021/12/17 12:20:50;;;;;;;19.67;7.20;;;7.40;99.90;;;;;;5068749;28;20744;-86
2021/12/17 12:23:36;;;;;;;20.90;7.18;;;7.40;99.90;;;;;;5069809;28;20537;-91
2021/12/17 12:26:38;;;;;;;26.30;8.33;;;7.40;99.90;;;;;;5070540;28;20383;-91
2021/12/17 12:29:26;;;;;;;16.60;6.63;;;7.50;99.90;;;;;;5066742;28;20777;-90
2021/12/17 12:32:17;;;;;;;18.85;6.53;;;7.60;99.90;;;;;;5068364;28;20418;-87
2021/12/17 12:34:45;;;;;;;15.90;6.95;;;7.60;99.90;;;;;;5067343;28;20403;-90
2021/12/17 12:37:19;;;;;;;14.07;6.93;;;7.60;99.90;;;;;;5066288;28;20384;-91
2021/12/17 12:39:50;;;;;;;18.20;7.10;;;7.60;99.90;;;;;;5072421;28;20404;-91
2021/12/17 12:42:24;;;;;;;15.50;6.47;;;7.50;99.90;;;;;;5070473;28;20397;-90
2021/12/17 12:44:49;;;;;;;13.30;6.60;;;7.60;99.90;;;;;;5078339;28;20392;-92
2021/12/17 12:47:25;;;;;;;13.70;6.20;;;7.60;99.90;;;;;;5082101;28;20402;-90
2021/12/17 12:50:06;;;;;;;14.27;6.28;;;7.50;99.90;;;;;;5083176;28;20388;-89
2021/12/17 12:52:32;;;;;;;14.43;6.50;;;7.50;99.90;;;;;;5071280;28;20403;-90
2021/12/17 12:55:07;;;;;;;15.85;6.95;;;7.50;99.90;;;;;;5070729;28;20396;-90
2021/12/17 12:57:39;;;;;;;16.55;7.38;;;7.60;99.90;;;;;;5076424;28;20368;-90
2021/12/17 13:00:21;;;;;;;18.13;7.10;;;7.70;99.90;;;;;;5076001;28;20399;-91
2021/12/17 13:02:56;;;;;;;15.63;6.78;;;7.60;99.90;;;;;;5072293;28;20399;-90
2021/12/17 13:05:23;;;;;;;17.35;6.88;;;7.50;99.90;;;;;;5074041;28;20388;-87
2021/12/17 13:07:57;;;;;;;18.15;6.50;;;7.40;99.90;;;;;;5075491;28;20399;-89
2021/12/17 13:10:30;;;;;;;15.30;6.88;;;7.50;99.90;;;;;;5075508;28;20879;-91
2021/12/17 13:21:18;;;;;;;16.63;6.72;;;7.40;99.90;;;;;;5084956;28;20395;-92
2021/12/17 13:24:06;;;;;;;16.75;6.43;;;7.30;99.90;;;;;;5075170;28;20442;-88
2021/12/17 13:26:32;;;;;;;14.20;6.15;;;7.40;99.90;;;;;;5073098;28;20389;-90
2021/12/17 13:29:05;;;;;;;14.35;6.47;;;7.30;99.90;;;;;;5074412;28;20443;-88
2021/12/17 13:31:44;;;;;;;18.15;7.50;;;7.40;99.90;;;;;;5091159;28;20387;-90
2021/12/17 13:34:27;;;;;;;17.13;7.13;;;7.30;99.90;;;;;;5071478;28;20497;-90
2021/12/17 13:37:01;;;;;;;16.30;6.55;;;7.40;99.90;;;;;;5073268;28;20387;-89
2021/12/17 13:39:32;;;;;;;16.67;7.32;;;7.50;99.90;;;;;;5075826;28;20905;-90
2021/12/17 13:41:58;;;;;;;14.52;6.95;;;7.40;99.90;;;;;;5076813;28;20447;-92
2021/12/17 13:44:34;;;;;;;16.98;6.93;;;7.40;99.90;;;;;;5077088;28;20400;-90
2021/12/17 13:47:12;;;;;;;16.45;6.80;;;7.30;99.90;;;;;;5088645;28;20439;-90
2021/12/17 13:49:41;;;;;;;15.65;6.93;;;7.30;99.90;;;;;;5067700;28;20389;-88
2021/12/17 13:52:28;;;;;;;14.30;6.20;;;7.30;99.90;;;;;;5078880;28;20422;-89
2021/12/17 13:55:09;;;;;;;14.30;6.28;;;7.30;99.90;;;;;;5089982;28;20682;-88
2021/12/17 13:57:39;;;;;;;14.73;5.75;;;7.40;99.90;;;;;;5097439;28;20469;-87
2021/12/17 14:00:14;;;;;;;14.55;6.05;;;7.30;99.90;;;;;;5073925;28;20489;-90
2021/12/17 14:02:42;;;;;;;12.25;6.05;;;7.30;99.90;;;;;;5086444;28;20390;-90
2021/12/17 14:05:24;;;;;;;14.37;5.80;;;7.30;99.90;;;;;;5077506;28;20858;-89
2021/12/17 14:07:51;;;;;;;12.15;5.65;;;7.30;99.90;;;;;;5077211;28;20410;-89
2021/12/17 14:10:24;;;;;;;12.15;5.47;;;7.30;99.90;;;;;;5084540;28;20446;-88
2021/12/17 14:12:53;;;;;;;12.13;5.77;;;7.20;99.90;;;;;;5079439;28;20394;-90
2021/12/17 14:15:23;;;;;;;11.90;5.25;;;7.10;99.90;;;;;;5076646;28;20380;-91
2021/12/17 14:17:54;;;;;;;10.27;5.28;;;7.20;99.90;;;;;;5069264;28;20441;-86
2021/12/17 14:20:26;;;;;;;11.50;5.18;;;7.20;99.90;;;;;;5078418;28;20388;-87
2021/12/17 14:23:03;;;;;;;10.73;5.40;;;7.10;99.90;;;;;;5103822;28;20374;-90
2021/12/17 14:25:48;;;;;;;9.52;5.03;;;7.10;99.90;;;;;;5061196;28;20444;-91
2021/12/17 14:28:35;;;;;;;9.75;5.38;;;7.10;99.90;;;;;;5070780;28;20412;-90
2021/12/17 14:31:18;;;;;;;9.43;4.97;;;7.10;99.90;;;;;;5069373;28;20396;-89
2021/12/17 14:33:57;;;;;;;13.63;6.07;;;7.00;99.90;;;;;;5070504;28;20870;-91
2021/12/17 14:36:28;;;;;;;10.33;4.80;;;7.00;99.90;;;;;;5069705;28;20384;-91
2021/12/17 14:39:03;;;;;;;9.50;5.15;;;7.00;99.90;;;;;;5063227;28;20745;-88
2021/12/17 14:45:08;;;;;;;15.40;5.75;;;7.00;99.90;;;;;;5080057;28;20393;-90
2021/12/17 14:47:49;;;;;;;15.87;5.13;;;7.00;99.90;;;;;;5069787;28;20436;-88
2021/12/17 15:01:39;;;;;;;12.07;5.13;;;7.20;99.90;;;;;;5087052;28;20895;-84
2021/12/17 15:04:06;;;;;;;13.50;5.10;;;7.00;99.90;;;;;;5087321;28;20381;-85
2021/12/17 15:06:38;;;;;;;29.85;7.15;;;6.90;99.90;;;;;;5089722;28;20475;-87
2021/12/17 15:09:05;;;;;;;15.43;6.40;;;6.90;99.90;;;;;;5071477;28;21058;-89
2021/12/17 15:11:37;;;;;;;18.77;6.10;;;7.00;99.90;;;;;;5079157;28;20392;-90
2021/12/17 15:14:03;;;;;;;12.73;5.13;;;6.80;99.90;;;;;;5087588;28;20394;-88
2021/12/17 15:16:31;;;;;;;11.63;4.80;;;6.90;99.90;;;;;;5068703;28;20886;-89
2021/12/17 15:18:57;;;;;;;17.13;5.57;;;6.90;99.90;;;;;;5073591;28;20381;-90
2021/12/17 15:21:22;;;;;;;18.43;5.70;;;7.00;99.90;;;;;;5092363;28;20375;-90
2021/12/17 15:23:48;;;;;;;15.40;6.00;;;6.90;99.90;;;;;;5077798;28;20390;-89
2021/12/17 15:26:14;;;;;;;19.50;5.80;;;6.90;99.90;;;;;;5084812;28;20388;-90
2021/12/17 15:28:39;;;;;;;12.10;5.20;;;6.90;99.90;;;;;;5071079;28;20412;-90
2021/12/17 15:31:06;;;;;;;13.13;5.30;;;6.90;99.90;;;;;;5071784;28;20387;-89
2021/12/17 15:33:34;;;;;;;13.27;5.38;;;7.00;99.90;;;;;;5075972;28;20372;-88
2021/12/17 15:36:00;;;;;;;11.38;5.50;;;7.00;99.90;;;;;;5072739;28;20384;-89
2021/12/17 15:38:26;;;;;;;11.63;5.18;;;7.00;99.90;;;;;;5075137;28;20463;-89
2021/12/17 15:40:52;;;;;;;12.48;5.40;;;7.00;99.90;;;;;;5073492;28;20487;-91
2021/12/17 15:43:19;;;;;;;16.13;6.03;;;7.10;99.90;;;;;;5073895;28;20495;-86
2021/12/17 15:45:49;;;;;;;14.65;5.68;;;6.90;99.90;;;;;;5077967;28;20379;-89
2021/12/17 15:48:17;;;;;;;11.30;5.28;;;6.80;99.90;;;;;;5074507;28;20446;-87
2021/12/17 15:50:43;;;;;;;9.02;5.20;;;6.90;99.90;;;;;;5070817;28;20833;-89
2021/12/17 15:53:10;;;;;;;9.13;4.47;;;6.70;99.90;;;;;;5072801;28;20368;-90
2021/12/17 15:55:39;;;;;;;9.15;4.45;;;6.80;99.90;;;;;;5070485;28;20408;-89
2021/12/17 15:58:08;;;;;;;9.95;5.45;;;6.90;99.90;;;;;;5074070;28;20473;-89
2021/12/17 16:00:36;;;;;;;12.20;5.80;;;7.00;99.90;;;;;;5077171;28;20408;-90
2021/12/17 16:03:06;;;;;;;9.02;4.70;;;7.00;99.90;;;;;;5071374;28;20388;-89
2021/12/17 16:05:33;;;;;;;10.90;5.20;;;6.90;99.90;;;;;;5059448;28;20967;-89
2021/12/17 16:08:00;;;;;;;12.60;5.37;;;7.00;99.90;;;;;;5069068;28;20433;-91
2021/12/17 16:18:56;;;;;;;12.27;5.82;;;7.20;99.90;;;;;;5087234;28;20394;-90
2021/12/17 16:21:24;;;;;;;11.95;5.28;;;7.10;99.90;;;;;;5070016;28;20420;-90
2021/12/17 16:23:53;;;;;;;11.02;5.85;;;7.10;99.90;;;;;;5068785;28;20384;-90
2021/12/17 16:26:22;;;;;;;10.63;5.43;;;7.10;99.90;;;;;;5067743;28;20428;-90
2021/12/17 16:28:50;;;;;;;11.07;5.60;;;7.10;99.90;;;;;;5068850;28;20414;-89
2021/12/17 16:31:22;;;;;;;9.68;5.20;;;7.10;99.90;;;;;;5074136;28;20395;-89